createdAt,value
2019-03-06T00:01:02.160Z,9.95
2019-03-06T00:02:10.465Z,8.75
2019-03-06T00:03:17.041Z,21.10
2019-03-06T00:04:23.998Z,21.00
2019-03-06T00:05:32.689Z,10.45
2019-03-06T00:06:40.523Z,10.13
2019-03-06T00:07:47.383Z,8.55
2019-03-06T00:08:54.970Z,8.25
2019-03-06T00:10:02.484Z,9.48
2019-03-06T00:11:10.359Z,9.13
2019-03-06T00:12:18.369Z,9.25
2019-03-06T00:13:28.784Z,9.10
2019-03-06T00:14:36.245Z,9.48
2019-03-06T00:15:44.249Z,11.68
2019-03-06T00:16:50.987Z,11.05
2019-03-06T00:17:57.534Z,9.98
2019-03-06T00:19:04.437Z,10.98
2019-03-06T00:20:11.368Z,10.82
2019-03-06T00:21:19.032Z,10.65
2019-03-06T00:22:26.311Z,12.15
2019-03-06T00:23:33.675Z,12.25
2019-03-06T00:24:40.950Z,14.13
2019-03-06T00:25:47.947Z,13.62
2019-03-06T00:26:56.174Z,13.03
2019-03-06T00:28:03.870Z,12.05
2019-03-06T00:29:10.389Z,14.70
2019-03-06T00:30:18.489Z,15.68
2019-03-06T00:31:25.820Z,27.90
2019-03-06T00:32:32.520Z,19.10
2019-03-06T00:33:39.951Z,21.95
2019-03-06T00:34:46.685Z,10.65
2019-03-06T00:35:55.092Z,13.13
2019-03-06T00:37:02.983Z,14.50
2019-03-06T00:38:10.214Z,10.63
2019-03-06T00:39:16.835Z,10.50
2019-03-06T00:40:25.705Z,11.48
2019-03-06T00:41:34.186Z,12.30
2019-03-06T00:42:45.601Z,11.55
2019-03-06T00:43:52.363Z,12.00
2019-03-06T00:44:58.921Z,11.40
2019-03-06T00:46:05.943Z,12.45
2019-03-06T00:47:13.361Z,11.15
2019-03-06T00:48:20.303Z,11.08
2019-03-06T00:49:37.885Z,10.63
2019-03-06T00:50:45.661Z,12.60
2019-03-06T00:51:52.887Z,10.10
2019-03-06T00:52:59.556Z,9.80
2019-03-06T00:54:06.007Z,9.48
2019-03-06T00:55:13.449Z,9.03
2019-03-06T00:56:20.290Z,9.85
2019-03-06T00:57:27.348Z,10.08
2019-03-06T00:58:33.834Z,10.03
2019-03-06T00:59:40.639Z,9.78
2019-03-06T01:00:47.129Z,8.95
2019-03-06T01:01:54.184Z,8.48
2019-03-06T01:03:00.812Z,12.65
2019-03-06T01:04:07.576Z,10.78
2019-03-06T01:05:15.327Z,10.65
2019-03-06T01:06:21.676Z,10.43
2019-03-06T01:07:28.400Z,13.55
2019-03-06T01:08:35.186Z,10.30
2019-03-06T01:09:42.963Z,9.95
2019-03-06T01:10:51.464Z,12.18
2019-03-06T01:11:58.682Z,12.25
2019-03-06T01:13:05.891Z,9.80
2019-03-06T01:14:13.135Z,9.08
2019-03-06T01:15:21.100Z,10.15
2019-03-06T01:16:28.357Z,12.15
2019-03-06T01:17:34.953Z,11.03
2019-03-06T01:18:43.106Z,10.23
2019-03-06T01:19:49.651Z,9.78
2019-03-06T01:20:56.545Z,10.30
2019-03-06T01:22:03.096Z,9.95
2019-03-06T01:23:09.621Z,9.30
2019-03-06T01:24:16.570Z,8.83
2019-03-06T01:25:23.883Z,8.68
2019-03-06T01:26:30.855Z,8.30
2019-03-06T01:27:37.620Z,8.48
2019-03-06T01:28:44.736Z,7.53
2019-03-06T01:29:52.936Z,8.43
2019-03-06T01:30:59.451Z,8.78
2019-03-06T01:32:06.846Z,8.63
2019-03-06T01:33:19.148Z,8.40
2019-03-06T01:34:26.985Z,9.65
2019-03-06T01:35:44.234Z,8.65
2019-03-06T01:36:56.177Z,9.83
2019-03-06T01:38:03.121Z,8.83
2019-03-06T01:39:27.701Z,9.45
2019-03-06T01:40:39.085Z,8.43
2019-03-06T01:41:47.303Z,9.05
2019-03-06T01:42:58.497Z,10.65
2019-03-06T01:44:07.252Z,9.70
2019-03-06T01:45:14.202Z,9.65
2019-03-06T01:46:20.875Z,13.13
2019-03-06T01:47:26.962Z,12.80
2019-03-06T01:48:33.789Z,12.43
2019-03-06T01:49:40.401Z,10.82
2019-03-06T01:50:47.871Z,12.35
2019-03-06T01:52:08.786Z,9.38
2019-03-06T01:53:16.312Z,10.65
2019-03-06T01:54:23.006Z,11.10
2019-03-06T01:55:29.887Z,11.68
2019-03-06T01:56:37.103Z,10.68
2019-03-06T01:57:44.091Z,10.82
2019-03-06T01:58:51.521Z,9.65
2019-03-06T01:59:58.602Z,9.53
2019-03-06T02:01:04.926Z,9.65
2019-03-06T02:02:12.100Z,10.23
2019-03-06T02:03:20.236Z,9.85
2019-03-06T02:04:26.658Z,9.20
2019-03-06T02:05:33.985Z,9.58
2019-03-06T02:06:40.658Z,9.78
2019-03-06T02:07:49.656Z,10.35
2019-03-06T02:08:57.307Z,11.50
2019-03-06T02:10:04.050Z,9.90
2019-03-06T02:11:10.919Z,10.23
2019-03-06T02:12:17.290Z,9.60
2019-03-06T02:13:27.386Z,10.95
2019-03-06T02:14:35.361Z,10.05
2019-03-06T02:15:41.651Z,9.50
2019-03-06T02:16:49.292Z,9.53
2019-03-06T02:17:56.307Z,8.73
2019-03-06T02:19:03.391Z,8.78
2019-03-06T02:20:15.630Z,8.90
2019-03-06T02:21:22.839Z,8.75
2019-03-06T02:22:30.171Z,10.35
2019-03-06T02:23:37.021Z,10.55
2019-03-06T02:24:44.009Z,9.40
2019-03-06T02:25:50.752Z,10.03
2019-03-06T02:26:57.996Z,10.55
2019-03-06T02:28:05.727Z,10.93
2019-03-06T02:29:12.997Z,10.72
2019-03-06T02:30:23.910Z,12.95
2019-03-06T02:31:30.397Z,11.00
2019-03-06T02:32:38.110Z,12.55
2019-03-06T02:33:45.803Z,11.08
2019-03-06T02:34:52.406Z,10.78
2019-03-06T02:36:00.609Z,11.18
2019-03-06T02:37:08.471Z,10.80
2019-03-06T02:38:16.332Z,10.15
2019-03-06T02:39:23.821Z,10.45
2019-03-06T02:41:17.920Z,9.85
2019-03-06T02:45:22.080Z,9.70
2019-03-06T02:46:28.126Z,10.15
2019-03-06T02:47:34.894Z,9.98
2019-03-06T02:48:42.084Z,11.00
2019-03-06T02:49:49.245Z,11.78
2019-03-06T02:50:56.224Z,10.90
2019-03-06T02:52:03.470Z,10.85
2019-03-06T02:53:09.769Z,10.93
2019-03-06T02:54:16.351Z,10.85
2019-03-06T02:55:23.646Z,11.30
2019-03-06T02:56:30.351Z,10.45
2019-03-06T02:57:39.279Z,9.45
2019-03-06T02:58:47.897Z,9.70
2019-03-06T02:59:56.122Z,9.83
2019-03-06T03:01:17.380Z,9.65
2019-03-06T03:02:32.639Z,11.88
2019-03-06T03:03:47.535Z,9.80
2019-03-06T03:04:57.360Z,11.35
2019-03-06T03:06:05.575Z,18.40
2019-03-06T03:07:13.332Z,15.93
2019-03-06T03:08:20.241Z,17.17
2019-03-06T03:09:26.928Z,20.85
2019-03-06T03:10:33.780Z,15.13
2019-03-06T03:11:40.480Z,14.98
2019-03-06T03:12:47.778Z,22.48
2019-03-06T03:13:55.109Z,17.02
2019-03-06T03:15:02.622Z,14.03
2019-03-06T03:16:10.232Z,14.75
2019-03-06T03:17:17.210Z,11.90
2019-03-06T03:18:24.636Z,15.15
2019-03-06T03:19:32.268Z,12.78
2019-03-06T03:20:39.572Z,11.15
2019-03-06T03:21:46.557Z,12.23
2019-03-06T03:23:15.122Z,11.10
2019-03-06T03:24:16.728Z,11.68
2019-03-06T03:25:24.235Z,12.33
2019-03-06T03:26:31.045Z,27.30
2019-03-06T03:27:40.005Z,19.15
2019-03-06T03:28:47.303Z,19.57
2019-03-06T03:29:54.227Z,20.10
2019-03-06T03:31:01.025Z,15.68
2019-03-06T03:32:08.329Z,21.35
2019-03-06T03:33:15.233Z,55.05
2019-03-06T03:34:22.919Z,51.18
2019-03-06T03:35:30.060Z,65.32
2019-03-06T03:36:37.561Z,36.50
2019-03-06T03:37:44.675Z,46.48
2019-03-06T03:38:51.887Z,35.40
2019-03-06T03:39:58.959Z,21.50
2019-03-06T03:41:06.016Z,13.13
2019-03-06T03:42:13.783Z,10.50
2019-03-06T03:43:20.031Z,10.23
2019-03-06T03:44:26.841Z,9.70
2019-03-06T03:45:33.628Z,10.60
2019-03-06T03:46:40.379Z,9.00
2019-03-06T03:47:47.801Z,9.95
2019-03-06T03:48:54.755Z,9.53
2019-03-06T03:50:01.976Z,9.08
2019-03-06T03:51:09.658Z,7.83
2019-03-06T03:52:16.447Z,8.03
2019-03-06T03:53:23.832Z,7.40
2019-03-06T03:54:30.588Z,7.37
2019-03-06T03:55:38.273Z,7.72
2019-03-06T03:56:45.105Z,7.47
2019-03-06T03:57:52.139Z,7.50
2019-03-06T03:58:59.167Z,7.42
2019-03-06T04:00:15.120Z,7.45
2019-03-06T04:01:21.830Z,6.80
2019-03-06T04:02:30.076Z,7.37
2019-03-06T04:03:37.030Z,7.70
2019-03-06T04:04:44.223Z,7.42
2019-03-06T04:05:51.198Z,7.58
2019-03-06T04:07:08.879Z,8.73
2019-03-06T04:08:16.214Z,8.40
2019-03-06T04:09:24.135Z,8.25
2019-03-06T04:10:30.984Z,7.20
2019-03-06T04:11:37.597Z,6.60
2019-03-06T04:12:43.934Z,6.62
2019-03-06T04:13:51.157Z,7.22
2019-03-06T04:14:58.108Z,6.45
2019-03-06T04:16:04.311Z,6.47
2019-03-06T04:17:11.704Z,6.70
2019-03-06T04:18:18.490Z,6.95
2019-03-06T04:19:24.961Z,6.20
2019-03-06T04:20:31.620Z,7.50
2019-03-06T04:21:38.412Z,6.67
2019-03-06T04:22:44.852Z,7.25
2019-03-06T04:23:52.467Z,6.67
2019-03-06T04:25:01.023Z,7.65
2019-03-06T04:26:09.351Z,8.20
2019-03-06T04:27:16.382Z,7.92
2019-03-06T04:28:22.821Z,8.18
2019-03-06T04:29:29.951Z,8.20
2019-03-06T04:30:37.841Z,8.13
2019-03-06T04:31:44.876Z,7.10
2019-03-06T04:32:51.425Z,7.50
2019-03-06T04:33:58.539Z,7.03
2019-03-06T04:35:06.222Z,7.17
2019-03-06T04:36:13.435Z,7.42
2019-03-06T04:37:20.527Z,7.62
2019-03-06T04:38:26.987Z,6.95
2019-03-06T04:39:34.186Z,8.03
2019-03-06T04:40:40.817Z,7.55
2019-03-06T04:41:47.571Z,7.00
2019-03-06T04:42:54.805Z,7.62
2019-03-06T04:44:01.911Z,7.90
2019-03-06T04:45:12.725Z,8.05
2019-03-06T04:46:19.333Z,8.40
2019-03-06T04:47:26.625Z,8.60
2019-03-06T04:48:33.764Z,9.15
2019-03-06T04:49:41.228Z,8.75
2019-03-06T04:50:47.986Z,8.88
2019-03-06T04:51:55.678Z,8.45
2019-03-06T04:53:02.178Z,7.78
2019-03-06T04:54:09.068Z,8.75
2019-03-06T04:55:16.617Z,9.98
2019-03-06T04:56:23.484Z,12.03
2019-03-06T04:57:30.808Z,9.20
2019-03-06T04:58:37.541Z,7.60
2019-03-06T04:59:44.438Z,7.37
2019-03-06T05:00:52.280Z,7.92
2019-03-06T05:01:59.427Z,8.10
2019-03-06T05:03:05.943Z,7.65
2019-03-06T05:04:12.426Z,8.73
2019-03-06T05:05:21.163Z,8.03
2019-03-06T05:06:28.047Z,8.23
2019-03-06T05:07:34.555Z,8.55
2019-03-06T05:08:41.303Z,7.67
2019-03-06T05:09:47.954Z,8.18
2019-03-06T05:10:55.086Z,7.53
2019-03-06T05:12:01.907Z,7.83
2019-03-06T05:13:08.887Z,7.75
2019-03-06T05:14:15.451Z,7.72
2019-03-06T05:15:22.422Z,7.80
2019-03-06T05:16:45.574Z,7.08
2019-03-06T05:18:04.458Z,7.05
2019-03-06T05:19:11.795Z,7.72
2019-03-06T05:20:19.290Z,7.75
2019-03-06T05:21:26.313Z,7.87
2019-03-06T05:22:32.875Z,8.13
2019-03-06T05:23:39.106Z,8.13
2019-03-06T05:24:46.225Z,8.78
2019-03-06T05:25:52.632Z,8.73
2019-03-06T05:26:59.602Z,9.70
2019-03-06T05:28:06.849Z,11.55
2019-03-06T05:29:14.962Z,10.25
2019-03-06T05:30:23.203Z,8.88
2019-03-06T05:31:30.344Z,8.85
2019-03-06T05:32:37.911Z,8.23
2019-03-06T05:33:45.466Z,10.20
2019-03-06T05:34:53.592Z,9.73
2019-03-06T05:36:17.209Z,14.58
2019-03-06T05:37:57.584Z,13.20
2019-03-06T05:39:10.952Z,13.38
2019-03-06T05:40:17.716Z,11.60
2019-03-06T05:41:24.654Z,8.93
2019-03-06T05:42:32.065Z,9.58
2019-03-06T05:43:38.998Z,10.82
2019-03-06T05:44:45.954Z,13.20
2019-03-06T05:46:09.365Z,14.73
2019-03-06T05:47:16.968Z,10.13
2019-03-06T05:48:23.531Z,10.10
2019-03-06T05:49:30.971Z,10.58
2019-03-06T05:50:38.167Z,13.50
2019-03-06T05:51:45.800Z,11.25
2019-03-06T05:52:53.884Z,9.15
2019-03-06T05:54:02.006Z,9.93
2019-03-06T05:55:09.830Z,8.85
2019-03-06T05:56:16.446Z,9.53
2019-03-06T05:57:23.796Z,9.98
2019-03-06T05:58:31.097Z,9.28
2019-03-06T05:59:38.853Z,10.53
2019-03-06T06:00:46.006Z,8.85
2019-03-06T06:01:53.334Z,9.83
2019-03-06T06:03:00.544Z,14.98
2019-03-06T06:04:07.674Z,12.98
2019-03-06T06:05:15.966Z,18.42
2019-03-06T06:06:23.100Z,22.42
2019-03-06T06:07:30.213Z,49.88
2019-03-06T06:08:36.789Z,27.32
2019-03-06T06:09:43.678Z,21.30
2019-03-06T06:10:50.127Z,14.55
2019-03-06T06:11:58.289Z,13.30
2019-03-06T06:13:05.114Z,12.23
2019-03-06T06:14:12.487Z,14.07
2019-03-06T06:15:19.296Z,10.35
2019-03-06T06:16:26.098Z,16.50
2019-03-06T06:17:39.470Z,9.88
2019-03-06T06:18:46.044Z,12.88
2019-03-06T06:19:53.147Z,14.80
2019-03-06T06:21:04.054Z,11.05
2019-03-06T06:22:17.173Z,9.55
2019-03-06T06:23:40.733Z,10.13
2019-03-06T06:24:54.491Z,13.93
2019-03-06T06:26:05.661Z,11.93
2019-03-06T06:27:12.479Z,10.70
2019-03-06T06:28:19.395Z,10.53
2019-03-06T06:29:25.986Z,10.95
2019-03-06T06:30:34.549Z,11.15
2019-03-06T06:31:41.295Z,10.08
2019-03-06T06:32:48.165Z,17.00
2019-03-06T06:33:54.469Z,13.70
2019-03-06T06:35:01.559Z,13.68
2019-03-06T06:36:07.969Z,13.60
2019-03-06T06:37:14.487Z,10.20
2019-03-06T06:38:21.090Z,12.13
2019-03-06T06:39:27.242Z,12.20
2019-03-06T06:40:35.751Z,13.53
2019-03-06T06:41:43.810Z,9.55
2019-03-06T06:42:51.049Z,15.28
2019-03-06T06:43:58.123Z,11.43
2019-03-06T06:45:06.221Z,10.40
2019-03-06T06:46:12.781Z,10.20
2019-03-06T06:47:19.762Z,15.28
2019-03-06T06:48:30.136Z,16.37
2019-03-06T06:49:37.516Z,17.00
2019-03-06T06:51:07.223Z,12.63
2019-03-06T06:52:47.080Z,12.35
2019-03-06T06:53:58.386Z,12.10
2019-03-06T06:55:30.480Z,11.80
2019-03-06T06:57:13.507Z,13.03
2019-03-06T06:58:34.232Z,14.38
2019-03-06T07:00:12.501Z,13.55
2019-03-06T07:01:28.500Z,11.70
2019-03-06T07:02:53.078Z,11.40
2019-03-06T07:04:47.377Z,11.73
2019-03-06T07:05:54.662Z,10.35
2019-03-06T07:07:08.371Z,10.48
2019-03-06T07:08:16.723Z,11.93
2019-03-06T07:09:40.730Z,12.25
2019-03-06T07:10:48.778Z,11.80
2019-03-06T07:12:05.648Z,14.35
2019-03-06T07:13:18.038Z,13.50
2019-03-06T07:14:40.188Z,30.45
2019-03-06T07:15:48.418Z,38.55
2019-03-06T07:16:57.578Z,43.75
2019-03-06T07:18:21.867Z,19.48
2019-03-06T07:19:31.899Z,32.30
2019-03-06T07:20:57.583Z,26.02
2019-03-06T07:22:06.388Z,12.82
2019-03-06T07:23:17.334Z,12.05
2019-03-06T07:24:41.944Z,14.65
2019-03-06T07:25:53.104Z,18.00
2019-03-06T07:27:18.658Z,13.55
2019-03-06T07:28:28.107Z,16.97
2019-03-06T07:29:55.001Z,11.75
2019-03-06T07:31:15.036Z,11.40
2019-03-06T07:32:23.039Z,10.43
2019-03-06T07:33:53.241Z,10.32
2019-03-06T07:35:46.409Z,11.43
2019-03-06T07:36:56.849Z,10.63
2019-03-06T07:38:11.216Z,9.98
2019-03-06T07:39:24.155Z,11.00
2019-03-06T07:40:39.169Z,11.08
2019-03-06T07:41:51.979Z,13.35
2019-03-06T07:43:00.547Z,10.20
2019-03-06T07:44:33.208Z,8.65
2019-03-06T07:45:56.170Z,9.50
2019-03-06T07:47:14.990Z,9.65
2019-03-06T07:48:30.320Z,28.87
2019-03-06T07:49:50.661Z,30.00
2019-03-06T07:51:14.166Z,29.98
2019-03-06T07:52:26.627Z,14.23
2019-03-06T07:53:58.392Z,11.93
2019-03-06T07:55:11.729Z,11.63
2019-03-06T07:56:24.869Z,19.35
2019-03-06T07:57:41.796Z,14.98
2019-03-06T07:59:08.639Z,20.05
2019-03-06T08:00:17.340Z,13.43
2019-03-06T08:01:28.344Z,8.35
2019-03-06T08:03:02.801Z,8.15
2019-03-06T08:04:19.568Z,9.28
2019-03-06T08:05:37.167Z,8.80
2019-03-06T08:06:48.039Z,9.53
2019-03-06T08:07:56.362Z,8.33
2019-03-06T08:09:10.278Z,9.00
2019-03-06T08:10:21.139Z,10.05
2019-03-06T08:11:31.193Z,10.40
2019-03-06T08:12:45.798Z,9.20
2019-03-06T08:13:55.857Z,7.55
2019-03-06T08:15:26.211Z,13.18
2019-03-06T08:16:39.882Z,22.42
2019-03-06T08:18:05.731Z,23.35
2019-03-06T08:19:13.768Z,14.13
2019-03-06T08:20:22.357Z,9.45
2019-03-06T08:21:34.070Z,14.55
2019-03-06T08:22:41.827Z,11.30
2019-03-06T08:23:49.847Z,12.40
2019-03-06T08:25:07.847Z,14.40
2019-03-06T08:26:14.951Z,7.83
2019-03-06T08:27:21.765Z,7.50
2019-03-06T08:28:29.235Z,7.22
2019-03-06T08:29:36.852Z,6.90
2019-03-06T08:30:53.728Z,6.17
2019-03-06T08:32:01.775Z,6.45
2019-03-06T08:33:17.719Z,6.10
2019-03-06T08:34:17.995Z,5.70
2019-03-06T08:35:24.856Z,5.75
2019-03-06T08:36:31.979Z,5.97
2019-03-06T08:37:38.859Z,6.77
2019-03-06T08:38:45.792Z,7.05
2019-03-06T08:39:52.429Z,7.55
2019-03-06T08:41:04.325Z,9.57
2019-03-06T08:42:09.575Z,7.27
2019-03-06T08:43:16.606Z,6.70
2019-03-06T08:44:23.558Z,5.97
2019-03-06T08:45:32.532Z,7.93
2019-03-06T08:46:43.523Z,7.63
2019-03-06T08:47:55.163Z,8.03
2019-03-06T08:49:19.445Z,8.63
2019-03-06T08:50:32.525Z,9.20
2019-03-06T08:51:52.984Z,6.60
2019-03-06T08:53:14.275Z,5.70
2019-03-06T08:54:22.142Z,6.17
2019-03-06T08:55:30.359Z,6.47
2019-03-06T08:56:36.816Z,5.83
2019-03-06T08:57:44.727Z,7.97
2019-03-06T08:58:57.383Z,8.50
2019-03-06T09:00:28.263Z,15.07
2019-03-06T09:01:40.543Z,5.93
2019-03-06T09:02:55.743Z,6.40
2019-03-06T09:04:19.372Z,7.53
2019-03-06T09:05:31.254Z,7.43
2019-03-06T09:06:38.811Z,9.33
2019-03-06T09:08:02.722Z,13.00
2019-03-06T09:09:11.594Z,9.47
2019-03-06T09:10:33.033Z,9.30
2019-03-06T09:11:42.041Z,7.80
2019-03-06T09:12:55.277Z,11.20
2019-03-06T09:14:10.383Z,11.40
2019-03-06T09:15:20.011Z,11.00
2019-03-06T09:16:27.876Z,10.20
2019-03-06T09:17:38.232Z,9.57
2019-03-06T09:18:52.233Z,8.90
2019-03-06T09:20:03.703Z,8.20
2019-03-06T09:21:15.723Z,7.73
2019-03-06T09:22:22.984Z,7.87
2019-03-06T09:23:46.965Z,7.40
2019-03-06T09:24:54.313Z,7.70
2019-03-06T09:26:00.290Z,7.63
2019-03-06T09:27:10.002Z,7.50
2019-03-06T09:28:17.995Z,7.10
2019-03-06T09:29:25.873Z,6.60
2019-03-06T09:30:34.780Z,7.03
2019-03-06T09:31:42.171Z,6.30
2019-03-06T09:32:51.830Z,6.60
2019-03-06T09:34:15.959Z,6.50
2019-03-06T09:35:34.330Z,7.40
2019-03-06T09:36:59.277Z,5.87
2019-03-06T09:38:11.081Z,5.80
2019-03-06T09:39:24.421Z,6.50
2019-03-06T09:40:47.858Z,7.70
2019-03-06T09:41:56.365Z,6.47
2019-03-06T09:43:08.243Z,7.23
2019-03-06T09:44:19.525Z,7.60
2019-03-06T09:45:28.363Z,7.30
2019-03-06T09:46:36.133Z,8.37
2019-03-06T09:48:00.494Z,13.47
2019-03-06T09:49:12.586Z,9.30
2019-03-06T09:50:47.893Z,6.77
2019-03-06T09:51:53.573Z,7.20
2019-03-06T10:01:44.847Z,6.70
2019-03-06T10:02:52.692Z,7.33
2019-03-06T10:04:16.599Z,6.27
2019-03-06T10:05:29.906Z,7.10
2019-03-06T10:06:43.334Z,7.90
2019-03-06T10:07:50.838Z,7.47
2019-03-06T10:09:00.093Z,8.23
2019-03-06T10:10:11.970Z,7.67
2019-03-06T10:11:20.079Z,7.27
2019-03-06T10:12:25.853Z,7.43
2019-03-06T10:13:41.613Z,7.37
2019-03-06T10:14:44.533Z,7.20
2019-03-06T10:16:02.855Z,7.63
2019-03-06T10:17:27.187Z,7.60
2019-03-06T10:18:42.684Z,8.07
2019-03-06T10:19:50.880Z,7.33
2019-03-06T10:20:57.298Z,8.10
2019-03-06T10:22:04.668Z,8.43
2019-03-06T10:23:12.480Z,7.80
2019-03-06T10:24:20.216Z,8.63
2019-03-06T10:25:30.294Z,8.00
2019-03-06T10:26:35.132Z,8.13
2019-03-06T10:27:42.176Z,10.10
2019-03-06T10:28:48.849Z,9.87
2019-03-06T10:29:55.343Z,9.17
2019-03-06T10:31:02.790Z,8.70
2019-03-06T10:32:09.662Z,8.73
2019-03-06T10:33:16.080Z,9.40
2019-03-06T10:34:23.996Z,10.00
2019-03-06T10:35:30.408Z,9.07
2019-03-06T10:36:39.120Z,9.90
2019-03-06T10:37:46.351Z,9.13
2019-03-06T10:38:52.960Z,9.13
2019-03-06T10:40:00.160Z,9.90
2019-03-06T10:41:07.241Z,10.03
2019-03-06T10:42:13.352Z,10.60
2019-03-06T10:43:20.393Z,10.70
2019-03-06T10:44:29.887Z,10.93
2019-03-06T10:45:41.768Z,11.40
2019-03-06T10:46:45.368Z,11.17
2019-03-06T10:47:51.374Z,12.57
2019-03-06T10:48:58.116Z,11.90
2019-03-06T10:50:05.465Z,12.40
2019-03-06T10:51:11.428Z,11.30
2019-03-06T10:52:18.122Z,10.83
2019-03-06T10:53:25.045Z,11.70
2019-03-06T10:54:30.838Z,11.50
2019-03-06T10:55:37.449Z,17.90
2019-03-06T10:56:44.045Z,16.97
2019-03-06T10:57:50.004Z,13.80
2019-03-06T10:58:56.531Z,12.67
2019-03-06T11:00:06.675Z,12.17
2019-03-06T11:01:12.751Z,14.13
2019-03-06T11:02:19.286Z,13.43
2019-03-06T11:03:37.634Z,13.67
2019-03-06T11:04:45.544Z,19.40
2019-03-06T11:05:52.335Z,20.80
2019-03-06T11:06:59.401Z,15.20
2019-03-06T11:08:08.694Z,15.20
2019-03-06T11:09:15.610Z,14.70
2019-03-06T11:10:24.190Z,13.13
2019-03-06T11:11:32.298Z,14.83
2019-03-06T11:12:38.821Z,13.70
2019-03-06T11:13:44.881Z,13.70
2019-03-06T11:14:51.772Z,12.57
2019-03-06T11:15:59.148Z,12.97
2019-03-06T11:17:04.941Z,14.80
2019-03-06T11:18:12.168Z,14.77
2019-03-06T11:19:20.295Z,14.07
2019-03-06T11:20:40.703Z,14.30
2019-03-06T11:21:48.996Z,14.53
2019-03-06T11:22:57.016Z,13.67
2019-03-06T11:24:03.582Z,13.20
2019-03-06T11:25:15.244Z,13.87
2019-03-06T11:26:21.704Z,12.90
2019-03-06T11:27:29.801Z,13.13
2019-03-06T11:28:35.566Z,14.17
2019-03-06T11:29:41.667Z,12.10
2019-03-06T11:30:55.033Z,12.60
2019-03-06T11:32:01.406Z,13.53
2019-03-06T11:33:10.955Z,14.00
2019-03-06T11:34:18.244Z,13.53
2019-03-06T11:35:25.621Z,14.33
2019-03-06T11:36:33.161Z,15.57
2019-03-06T11:37:39.025Z,14.67
2019-03-06T11:38:46.239Z,14.47
2019-03-06T11:39:52.650Z,15.17
2019-03-06T11:40:58.685Z,14.67
2019-03-06T11:42:06.199Z,18.10
2019-03-06T11:43:13.556Z,17.33
2019-03-06T11:44:19.615Z,19.33
2019-03-06T11:45:25.425Z,19.77
2019-03-06T11:46:31.485Z,19.63
2019-03-06T11:47:38.129Z,19.17
2019-03-06T11:48:44.869Z,18.07
2019-03-06T11:49:50.978Z,17.40
2019-03-06T11:50:57.658Z,16.70
2019-03-06T11:52:05.407Z,16.30
2019-03-06T11:53:11.661Z,15.67
2019-03-06T11:54:19.255Z,16.90
2019-03-06T11:55:25.371Z,15.77
2019-03-06T11:56:31.228Z,15.90
2019-03-06T11:57:37.449Z,15.77
2019-03-06T11:58:43.661Z,18.00
2019-03-06T11:59:50.004Z,15.17
2019-03-06T12:00:57.462Z,15.43
2019-03-06T12:02:04.412Z,14.83
2019-03-06T12:03:10.084Z,15.03
2019-03-06T12:04:17.329Z,15.27
2019-03-06T12:05:23.605Z,14.90
2019-03-06T12:06:30.225Z,15.80
2019-03-06T12:07:37.267Z,15.53
2019-03-06T12:08:45.846Z,16.33
2019-03-06T12:09:50.637Z,16.60
2019-03-06T12:10:57.266Z,15.77
2019-03-06T12:12:04.005Z,15.23
2019-03-06T12:13:12.603Z,15.43
2019-03-06T12:14:19.476Z,14.60
2019-03-06T12:15:26.576Z,15.57
2019-03-06T12:16:41.592Z,15.33
2019-03-06T12:17:48.828Z,15.30
2019-03-06T12:18:55.131Z,14.77
2019-03-06T12:20:08.261Z,15.10
2019-03-06T12:21:10.186Z,14.70
2019-03-06T12:22:18.857Z,14.27
2019-03-06T12:23:26.066Z,15.17
2019-03-06T12:24:32.055Z,14.27
2019-03-06T12:25:41.512Z,14.77
2019-03-06T12:26:47.509Z,15.03
2019-03-06T12:27:53.813Z,13.30
2019-03-06T12:28:59.603Z,13.23
2019-03-06T12:30:12.577Z,14.20
2019-03-06T12:31:18.254Z,14.17
2019-03-06T12:32:24.293Z,16.00
2019-03-06T12:33:29.988Z,15.00
2019-03-06T12:34:35.684Z,13.73
2019-03-06T12:35:41.643Z,13.90
2019-03-06T12:36:48.194Z,13.23
2019-03-06T12:37:53.974Z,15.00
2019-03-06T12:38:59.633Z,13.27
2019-03-06T12:40:13.036Z,13.33
2019-03-06T12:41:20.083Z,13.70
2019-03-06T12:42:25.786Z,15.97
2019-03-06T12:43:33.066Z,14.40
2019-03-06T12:44:39.437Z,14.30
2019-03-06T12:46:22.417Z,14.27
2019-03-06T12:47:21.737Z,13.70
2019-03-06T12:48:27.494Z,14.27
2019-03-06T12:49:34.693Z,14.10
2019-03-06T12:50:42.297Z,15.13
2019-03-06T12:51:54.459Z,14.60
2019-03-06T12:52:55.574Z,15.10
2019-03-06T12:54:02.946Z,14.37
2019-03-06T12:55:11.187Z,14.93
2019-03-06T12:56:18.206Z,14.13
2019-03-06T12:57:24.554Z,15.53
2019-03-06T12:58:30.990Z,16.13
2019-03-06T12:59:37.725Z,14.10
2019-03-06T13:00:43.907Z,15.47
2019-03-06T13:01:49.987Z,15.67
2019-03-06T13:02:56.850Z,16.87
2019-03-06T13:04:02.888Z,16.47
2019-03-06T13:05:09.788Z,15.03
2019-03-06T13:06:24.116Z,14.73
2019-03-06T13:07:24.426Z,15.53
2019-03-06T13:08:31.740Z,15.73
2019-03-06T13:09:40.793Z,15.43
2019-03-06T13:10:48.116Z,14.87
2019-03-06T13:11:54.326Z,15.83
2019-03-06T13:13:02.248Z,15.57
2019-03-06T13:14:08.167Z,16.70
2019-03-06T13:15:28.544Z,14.93
2019-03-06T13:16:35.917Z,13.83
2019-03-06T13:17:41.886Z,14.37
2019-03-06T13:18:47.948Z,14.97
2019-03-06T13:19:54.376Z,15.53
2019-03-06T13:21:01.419Z,15.53
2019-03-06T13:22:11.361Z,15.63
2019-03-06T13:23:15.818Z,14.70
2019-03-06T13:24:21.975Z,14.73
2019-03-06T13:25:28.668Z,15.57
2019-03-06T13:26:34.898Z,17.00
2019-03-06T13:27:41.428Z,14.80
2019-03-06T13:28:56.924Z,14.17
2019-03-06T13:29:55.911Z,14.63
2019-03-06T13:31:02.549Z,14.63
2019-03-06T13:32:12.059Z,15.07
2019-03-06T13:33:18.498Z,16.40
2019-03-06T13:34:26.468Z,15.83
2019-03-06T13:35:34.398Z,15.27
2019-03-06T13:36:40.268Z,15.20
2019-03-06T13:37:46.018Z,14.40
2019-03-06T13:38:59.074Z,16.03
2019-03-06T13:39:59.958Z,15.40
2019-03-06T13:41:06.664Z,14.77
2019-03-06T13:42:12.805Z,12.70
2019-03-06T13:43:18.509Z,11.97
2019-03-06T13:44:24.766Z,12.70
2019-03-06T13:45:31.085Z,13.33
2019-03-06T13:46:37.033Z,13.93
2019-03-06T13:47:43.435Z,15.57
2019-03-06T13:48:49.987Z,14.57
2019-03-06T13:49:55.809Z,13.77
2019-03-06T13:51:02.197Z,14.13
2019-03-06T13:52:08.023Z,12.33
2019-03-06T13:53:20.100Z,13.87
2019-03-06T13:54:21.643Z,13.97
2019-03-06T13:55:27.815Z,13.20
2019-03-06T13:56:34.066Z,13.10
2019-03-06T13:57:39.811Z,13.80
2019-03-06T13:58:46.099Z,13.20
2019-03-06T13:59:51.828Z,14.23
2019-03-06T14:00:57.557Z,13.60
2019-03-06T14:02:06.997Z,13.57
2019-03-06T14:03:13.524Z,13.80
2019-03-06T14:04:19.366Z,14.70
2019-03-06T14:05:25.748Z,14.23
2019-03-06T14:06:32.079Z,14.40
2019-03-06T14:07:38.120Z,13.80
2019-03-06T14:08:44.176Z,14.20
2019-03-06T14:09:51.006Z,14.23
2019-03-06T14:10:58.256Z,13.43
2019-03-06T14:12:04.167Z,13.23
2019-03-06T14:13:11.766Z,13.07
2019-03-06T14:14:17.979Z,14.07
2019-03-06T14:15:24.709Z,14.50
2019-03-06T14:16:30.696Z,14.17
2019-03-06T14:17:37.198Z,13.53
2019-03-06T14:18:42.916Z,13.93
2019-03-06T14:19:49.298Z,13.10
2019-03-06T14:20:55.616Z,14.57
2019-03-06T14:22:01.360Z,13.90
2019-03-06T14:23:07.292Z,14.93
2019-03-06T14:24:13.277Z,14.70
2019-03-06T14:25:20.970Z,14.40
2019-03-06T14:26:27.776Z,15.33
2019-03-06T14:27:34.266Z,14.90
2019-03-06T14:28:40.580Z,14.60
2019-03-06T14:29:46.646Z,13.23
2019-03-06T14:30:53.430Z,15.97
2019-03-06T14:31:59.517Z,15.43
2019-03-06T14:33:06.199Z,16.57
2019-03-06T14:34:12.350Z,14.67
2019-03-06T14:35:18.487Z,15.97
2019-03-06T14:36:25.626Z,15.87
2019-03-06T14:37:31.861Z,16.10
2019-03-06T14:38:37.761Z,16.37
2019-03-06T14:39:43.687Z,15.30
2019-03-06T14:40:50.635Z,16.17
2019-03-06T14:41:57.363Z,15.43
2019-03-06T14:43:06.760Z,16.37
2019-03-06T14:44:12.840Z,16.37
2019-03-06T14:45:19.087Z,17.30
2019-03-06T14:46:24.781Z,15.63
2019-03-06T14:47:30.510Z,15.80
2019-03-06T14:48:36.464Z,16.67
2019-03-06T14:49:46.027Z,16.27
2019-03-06T14:50:52.317Z,16.00
2019-03-06T14:52:07.077Z,15.37
2019-03-06T14:53:09.445Z,15.63
2019-03-06T14:54:16.446Z,16.37
2019-03-06T14:55:22.590Z,16.83
2019-03-06T14:56:29.998Z,15.27
2019-03-06T14:57:37.880Z,16.33
2019-03-06T14:58:43.595Z,14.50
2019-03-06T14:59:51.623Z,15.87
2019-03-06T15:00:57.703Z,15.83
2019-03-06T15:02:06.422Z,14.73
2019-03-06T15:03:14.616Z,15.97
2019-03-06T15:04:23.880Z,15.67
2019-03-06T15:05:31.021Z,15.50
2019-03-06T15:06:38.877Z,14.93
2019-03-06T15:07:47.692Z,15.83
2019-03-06T15:08:58.728Z,15.23
2019-03-06T15:10:12.570Z,15.87
2019-03-06T15:11:23.073Z,15.40
2019-03-06T15:12:32.641Z,14.77
2019-03-06T15:13:40.971Z,15.73
2019-03-06T15:14:50.931Z,14.60